createdAt,value
2022-10-30T00:04:33.909Z,11.59
2022-10-30T00:19:25.284Z,8.80
2022-10-30T00:34:17.261Z,8.41
2022-10-30T00:49:17.799Z,7.89
2022-10-30T01:04:14.051Z,7.63
2022-10-30T01:19:06.589Z,7.61
2022-10-30T01:34:14.305Z,7.52
2022-10-30T01:49:21.331Z,7.37
2022-10-30T02:04:18.101Z,7.24
2022-10-30T02:19:09.591Z,7.69
2022-10-30T02:34:01.235Z,7.27
2022-10-30T03:03:44.717Z,7.68
2022-10-30T03:18:37.004Z,6.43
2022-10-30T03:33:27.966Z,7.28
2022-10-30T03:48:19.544Z,6.93
2022-10-30T04:03:12.682Z,6.96
2022-10-30T04:18:06.350Z,6.10
2022-10-30T04:32:58.623Z,6.36
2022-10-30T04:47:49.757Z,6.89
2022-10-30T05:02:41.086Z,6.61
2022-10-30T05:17:32.712Z,6.50
2022-10-30T05:32:25.235Z,7.06
2022-10-30T05:47:16.445Z,6.69
2022-10-30T06:02:07.949Z,6.17
2022-10-30T06:17:00.223Z,6.46
2022-10-30T06:31:52.793Z,6.14
2022-10-30T06:46:46.246Z,5.26
2022-10-30T07:01:39.191Z,5.82
2022-10-30T07:16:31.744Z,5.96
2022-10-30T07:31:35.016Z,5.77
2022-10-30T07:46:16.789Z,5.90
2022-10-30T08:01:11.489Z,6.50
2022-10-30T08:31:11.269Z,6.03
2022-10-30T08:46:03.411Z,5.47
2022-10-30T09:01:01.185Z,5.82
2022-10-30T09:15:50.107Z,5.60
2022-10-30T09:30:43.242Z,4.40
2022-10-30T09:45:44.010Z,4.92
2022-10-30T10:00:54.055Z,3.93
2022-10-30T10:15:51.136Z,3.62
2022-10-30T10:30:50.324Z,3.73
2022-10-30T10:45:50.397Z,3.58
2022-10-30T11:00:46.523Z,4.32
2022-10-30T11:15:56.940Z,3.94
2022-10-30T11:30:55.839Z,4.33
2022-10-30T11:45:48.237Z,4.38
2022-10-30T12:00:41.039Z,4.07
2022-10-30T12:15:34.164Z,4.39
2022-10-30T12:30:27.188Z,3.80
2022-10-30T12:45:34.919Z,3.76
2022-10-30T13:00:33.592Z,3.80
2022-10-30T13:15:28.960Z,3.97
2022-10-30T13:30:25.162Z,3.59
2022-10-30T13:45:26.631Z,3.64
2022-10-30T14:00:26.813Z,3.58
2022-10-30T14:15:35.093Z,3.94
2022-10-30T14:30:32.164Z,4.31
2022-10-30T14:45:26.594Z,4.14
2022-10-30T15:00:24.205Z,4.19
2022-10-30T15:15:18.902Z,4.45
2022-10-30T15:30:19.979Z,5.59
2022-10-30T15:45:22.155Z,5.10
2022-10-30T16:00:19.950Z,5.63
2022-10-30T16:15:26.472Z,5.32
2022-10-30T16:30:23.966Z,6.58
2022-10-30T16:45:18.685Z,8.56
2022-10-30T17:00:25.972Z,7.82
2022-10-30T17:15:18.387Z,8.99
2022-10-30T17:30:36.763Z,7.90
2022-10-30T17:45:34.472Z,8.48
2022-10-30T18:00:27.500Z,8.96
2022-10-30T18:15:24.573Z,7.58
2022-10-30T18:30:20.031Z,8.69
2022-10-30T18:45:14.073Z,10.53
2022-10-30T19:00:26.503Z,9.90
2022-10-30T19:15:18.343Z,8.98
2022-10-30T19:30:13.729Z,9.46
2022-10-30T19:45:05.779Z,9.00
2022-10-30T19:59:57.782Z,8.96
2022-10-30T20:14:49.703Z,10.26
2022-10-30T20:29:41.428Z,10.40
2022-10-30T20:44:33.096Z,9.88
2022-10-30T20:59:25.268Z,9.31
2022-10-30T21:14:17.873Z,9.12
2022-10-30T21:29:08.628Z,8.89
2022-10-30T21:43:59.615Z,8.36
2022-10-30T21:58:51.308Z,8.59
2022-10-30T22:13:43.039Z,8.63
2022-10-30T22:28:35.097Z,8.12
2022-10-30T22:43:26.101Z,7.89
2022-10-30T23:13:09.195Z,7.06
2022-10-30T23:27:59.940Z,7.64
2022-10-30T23:42:53.901Z,6.59
2022-10-30T23:57:47.720Z,6.40
